Time;durP1;ratioP1;P1;durP2;ratioP2;P2;SDS_P1;SDS_P2;PMS_P1;PMS_P2;Temp;Humidity;BMP_temperature;BMP_pressure;BME280_temperature;BME280_humidity;BME280_pressure;Samples;Min_cycle;Max_cycle;Signal;HPM_P1;HPM_P2
2021/01/05 00:04:15;;;;;;;93.50;11.93;;;;;;;-0.18;100.00;98073.98;3633860;81;45542;-20
2021/01/05 00:09:21;;;;;;;81.63;12.67;;;;;;;-0.15;100.00;98077.73;3631374;81;43650;-19
2021/01/05 00:14:28;;;;;;;61.60;10.83;;;;;;;-0.22;100.00;98079.10;3631506;82;43250;-19
2021/01/05 00:19:34;;;;;;;68.87;12.00;;;;;;;-0.26;100.00;98072.30;3631568;80;43995;-19
2021/01/05 00:24:40;;;;;;;88.53;11.40;;;;;;;-0.30;100.00;98074.31;3630218;82;43817;-19
2021/01/05 00:29:46;;;;;;;65.13;10.97;;;;;;;-0.29;100.00;98068.07;3633367;81;44042;-19
2021/01/05 00:34:53;;;;;;;42.07;10.23;;;;;;;-0.27;100.00;98075.90;3633793;81;43733;-20
2021/01/05 00:39:59;;;;;;;39.57;9.77;;;;;;;-0.23;100.00;98070.78;3636608;81;43472;-19
2021/01/05 00:45:07;;;;;;;46.47;10.00;;;;;;;-0.24;100.00;98066.44;3644484;81;43708;-20
2021/01/05 00:50:14;;;;;;;39.17;10.00;;;;;;;-0.20;100.00;98067.94;3643353;80;43766;-19
2021/01/05 00:55:20;;;;;;;42.03;10.23;;;;;;;-0.22;100.00;98065.87;3644734;81;42757;-20
2021/01/05 01:00:31;;;;;;;36.90;9.70;;;;;;;-0.23;100.00;98064.16;3645008;81;44404;-19
2021/01/05 01:05:44;;;;;;;54.23;10.13;;;;;;;-0.24;100.00;98061.14;3643954;81;26409;-19
2021/01/05 01:10:50;;;;;;;100.07;12.53;;;;;;;-0.20;100.00;98077.20;3643147;81;44051;-19
2021/01/05 01:15:57;;;;;;;103.43;12.13;;;;;;;-0.26;100.00;98081.57;3644247;81;43700;-19
2021/01/05 01:21:03;;;;;;;98.13;13.53;;;;;;;-0.25;100.00;98076.66;3641845;80;43710;-19
2021/01/05 01:26:10;;;;;;;139.67;15.97;;;;;;;-0.25;100.00;98072.68;3643895;81;44043;-19
2021/01/05 01:31:16;;;;;;;99.50;12.23;;;;;;;-0.24;100.00;98082.33;3640846;81;43698;-19
2021/01/05 01:36:22;;;;;;;107.10;13.30;;;;;;;-0.26;100.00;98071.84;3641276;81;43675;-20
2021/01/05 01:41:28;;;;;;;77.57;11.37;;;;;;;-0.26;100.00;98069.20;3639733;80;43699;-19
2021/01/05 01:46:36;;;;;;;86.63;12.20;;;;;;;-0.32;100.00;98073.10;3632977;81;44428;-20
2021/01/05 01:51:45;;;;;;;79.70;13.60;;;;;;;-0.35;100.00;98082.56;3607250;80;43535;-19
2021/01/05 01:57:23;;;;;;;68.67;11.63;;;;;;;-0.29;100.00;98076.50;3633917;81;44016;-20
2021/01/05 02:02:36;;;;;;;85.87;13.00;;;;;;;-0.38;100.00;98077.45;3577359;82;43980;-19
2021/01/05 02:07:49;;;;;;;82.80;12.77;;;;;;;-0.33;100.00;98073.19;3595707;82;43674;-19
2021/01/05 02:13:03;;;;;;;75.03;13.43;;;;;;;-0.25;100.00;98076.20;3594190;82;26343;-20
2021/01/05 02:18:25;;;;;;;71.67;11.07;;;;;;;-0.33;100.00;98067.89;3632035;81;43289;-19
2021/01/05 02:23:37;;;;;;;55.67;10.83;;;;;;;-0.22;100.00;98065.37;3633710;81;43426;-20
2021/01/05 02:28:47;;;;;;;65.57;11.00;;;;;;;-0.27;100.00;98070.61;3611688;82;44436;-20
2021/01/05 02:33:59;;;;;;;73.10;12.43;;;;;;;-0.30;100.00;98069.51;3631051;82;44414;-20
2021/01/05 02:39:46;;;;;;;66.37;11.43;;;;;;;-0.24;100.00;98058.50;3631608;81;43083;-20
2021/01/05 02:45:15;;;;;;;45.47;10.80;;;;;;;-0.34;100.00;98057.80;3631459;82;26327;-20
2021/01/05 02:51:05;;;;;;;53.27;10.27;;;;;;;-0.34;100.00;98051.17;3576638;83;26401;-20
2021/01/05 02:56:52;;;;;;;90.87;14.73;;;;;;;-0.43;100.00;98049.14;3548247;81;26360;-19
2021/01/05 03:02:43;;;;;;;60.00;14.93;;;;;;;-0.43;100.00;98047.81;3633616;81;26926;-19
2021/01/05 03:08:07;;;;;;;49.47;11.30;;;;;;;-0.37;100.00;98042.59;3634557;81;26510;-19
2021/01/05 03:13:40;;;;;;;59.00;11.40;;;;;;;-0.38;100.00;98039.57;3635379;81;26312;-19
2021/01/05 03:19:09;;;;;;;66.03;11.77;;;;;;;-0.37;100.00;98045.24;3635159;81;26428;-19
2021/01/05 03:24:27;;;;;;;97.40;13.70;;;;;;;-0.40;100.00;98038.82;3605688;81;26874;-18
2021/01/05 03:29:57;;;;;;;97.23;13.27;;;;;;;-0.35;100.00;98037.56;3633104;80;27017;-19
2021/01/05 03:35:21;;;;;;;57.00;11.20;;;;;;;-0.39;100.00;98040.52;3634752;81;26440;-19
2021/01/05 03:40:45;;;;;;;49.87;11.47;;;;;;;-0.37;100.00;98035.98;3577470;81;26600;-19
2021/01/05 03:46:10;;;;;;;49.27;11.23;;;;;;;-0.32;100.00;98042.66;3547970;82;27649;-18
2021/01/05 03:51:34;;;;;;;27.80;9.60;;;;;;;-0.29;100.00;98040.77;3595380;82;26946;-18
2021/01/05 03:56:51;;;;;;;23.37;8.47;;;;;;;-0.42;100.00;98046.88;3577188;81;26439;-19
2021/01/05 04:02:15;;;;;;;24.27;8.67;;;;;;;-0.35;100.00;98046.83;3632702;80;26324;-18
2021/01/05 04:07:21;;;;;;;33.37;9.90;;;;;;;-0.35;100.00;98041.53;3628203;81;42865;-18
2021/01/05 04:12:27;;;;;;;24.87;8.87;;;;;;;-0.40;100.00;98046.27;3631453;82;44566;-18
2021/01/05 04:17:33;;;;;;;17.80;7.37;;;;;;;-0.45;100.00;98036.48;3631154;81;43468;-18
2021/01/05 04:22:45;;;;;;;17.30;7.20;;;;;;;-0.45;100.00;98033.83;3633846;80;44718;-18
2021/01/05 04:27:51;;;;;;;17.63;7.77;;;;;;;-0.44;100.00;98040.83;3597156;82;43064;-18
2021/01/05 04:32:59;;;;;;;24.10;8.23;;;;;;;-0.39;100.00;98047.97;3632207;80;44086;-18
2021/01/05 04:38:06;;;;;;;26.13;8.83;;;;;;;-0.38;100.00;98045.70;3634803;81;44669;-18
2021/01/05 04:43:21;;;;;;;25.57;9.10;;;;;;;-0.39;100.00;98042.67;3638614;81;43685;-18
2021/01/05 04:48:40;;;;;;;32.60;10.37;;;;;;;-0.40;100.00;98042.79;3690347;80;43438;-18
2021/01/05 04:53:49;;;;;;;38.70;10.20;;;;;;;-0.47;100.00;98051.61;3689148;80;44168;-18
2021/01/05 04:59:01;;;;;;;39.17;10.70;;;;;;;-0.47;100.00;98048.47;3690946;80;44758;-18
2021/01/05 05:04:11;;;;;;;39.37;10.03;;;;;;;-0.47;100.00;98041.86;3642738;81;44005;-18
2021/01/05 05:09:34;;;;;;;34.27;9.63;;;;;;;-0.50;100.00;98043.41;3641039;81;43745;-18
2021/01/05 05:14:49;;;;;;;34.30;9.73;;;;;;;-0.57;100.00;98039.45;3642910;81;43334;-18
2021/01/05 05:20:00;;;;;;;34.07;10.30;;;;;;;-0.57;100.00;98046.05;3640225;81;43713;-18
2021/01/05 05:25:10;;;;;;;38.70;11.33;;;;;;;-0.54;100.00;98045.03;3639932;81;43408;-18
2021/01/05 05:30:20;;;;;;;35.30;11.03;;;;;;;-0.59;100.00;98051.95;3642739;81;44548;-18
2021/01/05 05:35:56;;;;;;;46.07;10.37;;;;;;;-0.52;100.00;98058.98;3691954;80;43715;-18
2021/01/05 05:41:07;;;;;;;34.53;10.20;;;;;;;-0.59;100.00;98058.56;3688824;80;43385;-18
2021/01/05 05:46:15;;;;;;;40.30;11.67;;;;;;;-0.54;100.00;98057.77;3745416;79;44061;-18
2021/01/05 05:51:28;;;;;;;52.13;11.67;;;;;;;-0.51;100.00;98067.30;3691569;80;44085;-18
2021/01/05 05:56:42;;;;;;;51.30;12.17;;;;;;;-0.48;100.00;98067.11;3639861;81;43375;-18
2021/01/05 06:01:48;;;;;;;66.33;14.13;;;;;;;-0.48;100.00;98070.63;3638905;81;43666;-18
2021/01/05 06:06:54;;;;;;;48.43;11.07;;;;;;;-0.48;100.00;98079.02;3640499;81;44074;-18
2021/01/05 06:12:01;;;;;;;49.77;12.53;;;;;;;-0.45;100.00;98075.31;3692300;79;42969;-18
2021/01/05 06:17:07;;;;;;;62.47;11.73;;;;;;;-0.47;100.00;98077.58;3627190;81;43990;-18
2021/01/05 06:22:13;;;;;;;62.40;12.47;;;;;;;-0.48;100.00;98081.20;3633673;81;44093;-18
2021/01/05 06:27:19;;;;;;;53.63;12.10;;;;;;;-0.50;100.00;98080.91;3633452;81;44686;-18
2021/01/05 06:32:25;;;;;;;58.57;11.83;;;;;;;-0.48;100.00;98079.02;3633420;81;43385;-18
2021/01/05 06:37:30;;;;;;;53.17;11.77;;;;;;;-0.45;100.00;98080.14;3555526;83;44458;-18
2021/01/05 06:42:37;;;;;;;73.77;12.60;;;;;;;-0.49;100.00;98081.28;3714160;79;44033;-18
2021/01/05 06:47:43;;;;;;;66.57;12.60;;;;;;;-0.49;100.00;98083.94;3679051;80;43714;-18
2021/01/05 06:52:49;;;;;;;74.17;13.47;;;;;;;-0.46;100.00;98089.03;3692079;80;43758;-18
2021/01/05 06:57:55;;;;;;;71.40;12.63;;;;;;;-0.50;100.00;98084.88;3684802;80;44072;-18
2021/01/05 07:03:01;;;;;;;92.63;14.00;;;;;;;-0.48;100.00;98085.63;3639140;81;44008;-18
2021/01/05 07:08:08;;;;;;;77.50;13.00;;;;;;;-0.49;100.00;98087.44;3641040;81;42768;-18
2021/01/05 07:13:14;;;;;;;74.73;12.67;;;;;;;-0.51;100.00;98096.41;3639878;80;44835;-18
2021/01/05 07:18:21;;;;;;;77.37;13.87;;;;;;;-0.47;100.00;98091.30;3662261;80;43369;-18
2021/01/05 07:23:29;;;;;;;86.07;13.00;;;;;;;-0.50;100.00;98096.78;3633794;81;44030;-18
2021/01/05 07:28:35;;;;;;;65.77;12.60;;;;;;;-0.46;100.00;98093.00;3633493;81;43277;-18
2021/01/05 07:33:40;;;;;;;60.70;12.70;;;;;;;-0.50;100.00;98102.95;3633947;81;43262;-18
2021/01/05 07:38:46;;;;;;;60.37;12.93;;;;;;;-0.50;100.00;98110.02;3668398;80;44312;-18
2021/01/05 07:43:52;;;;;;;61.43;12.53;;;;;;;-0.44;100.00;98110.09;3691788;79;43661;-18
2021/01/05 07:48:58;;;;;;;52.97;12.30;;;;;;;-0.42;100.00;98111.72;3689520;80;43531;-18
2021/01/05 07:54:06;;;;;;;41.73;11.97;;;;;;;-0.43;100.00;98115.77;3690508;80;44054;-18
2021/01/05 07:59:11;;;;;;;40.73;11.43;;;;;;;-0.42;100.00;98110.39;3639928;81;44055;-18
2021/01/05 08:04:17;;;;;;;42.03;11.80;;;;;;;-0.45;100.00;98107.94;3641964;81;44442;-18
2021/01/05 08:09:23;;;;;;;29.93;9.90;;;;;;;-0.37;100.00;98118.03;3640335;81;43392;-18
2021/01/05 08:14:28;;;;;;;30.83;10.03;;;;;;;-0.45;100.00;98113.23;3638953;81;44469;-18
2021/01/05 08:19:36;;;;;;;24.53;9.13;;;;;;;-0.34;100.00;98117.80;3633056;81;43722;-18
2021/01/05 08:24:42;;;;;;;20.37;7.97;;;;;;;-0.35;100.00;98120.94;3626951;82;44604;-18
2021/01/05 08:29:48;;;;;;;29.20;9.93;;;;;;;-0.28;100.00;98121.39;3629807;81;44017;-18
2021/01/05 08:34:54;;;;;;;42.30;11.63;;;;;;;-0.22;100.00;98125.44;3626880;81;44084;-18
2021/01/05 08:40:00;;;;;;;55.97;12.93;;;;;;;-0.25;100.00;98115.03;3641959;81;43474;-18
2021/01/05 08:45:09;;;;;;;75.07;13.30;;;;;;;-0.32;100.00;98125.17;3696927;79;44065;-18
2021/01/05 08:50:19;;;;;;;65.37;13.83;;;;;;;-0.33;100.00;98119.51;3614337;82;43411;-18
2021/01/05 08:55:25;;;;;;;77.97;14.40;;;;;;;-0.27;100.00;98127.52;3705729;80;44585;-18
2021/01/05 09:00:31;;;;;;;90.30;15.20;;;;;;;-0.26;100.00;98137.16;3616073;82;44465;-18
2021/01/05 09:05:39;;;;;;;135.43;16.93;;;;;;;-0.25;100.00;98130.92;3645225;81;44000;-18
2021/01/05 09:10:44;;;;;;;114.43;14.50;;;;;;;-0.22;100.00;98137.34;3644103;81;42690;-18
2021/01/05 09:15:50;;;;;;;101.17;16.47;;;;;;;-0.24;100.00;98142.75;3645168;81;44042;-18
2021/01/05 09:20:57;;;;;;;167.87;19.27;;;;;;;-0.20;100.00;98144.23;3623132;81;43941;-18
2021/01/05 09:26:03;;;;;;;117.00;16.93;;;;;;;-0.25;100.00;98138.86;3634145;81;44009;-18
2021/01/05 09:31:10;;;;;;;123.67;16.33;;;;;;;-0.22;100.00;98143.97;3705786;80;43682;-18
2021/01/05 09:36:16;;;;;;;113.83;15.97;;;;;;;-0.23;100.00;98143.09;3705263;80;44132;-18
2021/01/05 09:41:25;;;;;;;116.00;16.17;;;;;;;-0.18;100.00;98142.34;3613824;82;44051;-18
2021/01/05 09:46:31;;;;;;;120.40;17.73;;;;;;;-0.14;100.00;98145.62;3697123;80;44402;-18
2021/01/05 09:51:36;;;;;;;123.37;17.63;;;;;;;-0.15;100.00;98145.25;3579991;83;44105;-18
2021/01/05 09:56:46;;;;;;;136.97;15.40;;;;;;;-0.19;100.00;98146.42;3580644;82;43681;-18
2021/01/05 10:01:52;;;;;;;100.37;15.97;;;;;;;-0.21;100.00;98146.98;3582177;83;42882;-18
2021/01/05 10:06:58;;;;;;;121.97;16.20;;;;;;;-0.18;100.00;98139.69;3581589;82;44042;-18
2021/01/05 10:12:04;;;;;;;138.17;17.23;;;;;;;-0.20;100.00;98146.05;3688473;80;44559;-18
2021/01/05 10:17:10;;;;;;;114.07;15.93;;;;;;;-0.14;100.00;98141.66;3689552;80;44040;-18
2021/01/05 10:22:16;;;;;;;83.90;15.20;;;;;;;-0.11;100.00;98136.17;3691741;80;43712;-19
2021/01/05 10:27:23;;;;;;;67.33;14.27;;;;;;;-0.15;100.00;98138.63;3637928;81;44076;-18
2021/01/05 10:32:29;;;;;;;42.83;13.20;;;;;;;-0.13;100.00;98131.93;3688763;80;43459;-18
2021/01/05 10:37:35;;;;;;;35.73;11.80;;;;;;;-0.15;100.00;98132.02;3689164;80;44816;-18
2021/01/05 10:42:43;;;;;;;31.00;10.80;;;;;;;-0.08;100.00;98133.33;3688548;80;43367;-18
2021/01/05 10:47:50;;;;;;;34.63;12.03;;;;;;;0.06;100.00;98127.59;3580833;83;44087;-18
2021/01/05 10:52:56;;;;;;;52.73;13.03;;;;;;;0.06;100.00;98131.08;3641722;81;44010;-18
2021/01/05 10:58:03;;;;;;;73.30;15.73;;;;;;;0.02;100.00;98127.41;3631934;81;43807;-18
2021/01/05 11:03:08;;;;;;;96.47;16.77;;;;;;;-0.01;100.00;98124.01;3677743;80;44012;-18
2021/01/05 11:08:14;;;;;;;97.20;16.47;;;;;;;0.03;100.00;98127.78;3662928;80;44010;-18
2021/01/05 11:13:20;;;;;;;127.87;15.63;;;;;;;-0.05;100.00;98128.29;3637453;81;43592;-19
2021/01/05 11:18:26;;;;;;;118.63;16.03;;;;;;;-0.10;100.00;98120.66;3632783;81;44118;-18
2021/01/05 11:23:33;;;;;;;225.30;20.50;;;;;;;0.00;100.00;98114.28;3702379;80;44411;-18
2021/01/05 11:28:38;;;;;;;166.30;18.30;;;;;;;-0.07;100.00;98107.67;3704124;80;43433;-18
2021/01/05 11:33:44;;;;;;;102.10;15.87;;;;;;;-0.06;100.00;98102.27;3615953;82;43436;-18
2021/01/05 11:38:50;;;;;;;226.43;22.03;;;;;;;-0.07;100.00;98099.73;3703860;80;44065;-18
2021/01/05 11:43:57;;;;;;;140.90;17.27;;;;;;;-0.19;100.00;98091.66;3613999;82;43698;-18
2021/01/05 11:49:04;;;;;;;90.97;14.70;;;;;;;-0.10;100.00;98088.02;3691997;79;43188;-18
2021/01/05 11:54:10;;;;;;;94.03;15.40;;;;;;;-0.08;100.00;98076.39;3691340;80;44126;-18
2021/01/05 11:59:16;;;;;;;116.63;16.70;;;;;;;-0.09;100.00;98072.05;3641870;81;43320;-18
2021/01/05 12:04:22;;;;;;;269.43;23.70;;;;;;;-0.18;100.00;98076.15;3641795;81;43393;-18
2021/01/05 12:09:30;;;;;;;248.00;24.63;;;;;;;-0.21;100.00;98071.05;3579924;83;44041;-18
2021/01/05 12:14:36;;;;;;;227.80;24.47;;;;;;;-0.26;100.00;98073.63;3688434;80;43720;-18
2021/01/05 12:19:43;;;;;;;264.43;23.97;;;;;;;-0.30;100.00;98074.31;3690549;80;44061;-18
2021/01/05 12:24:49;;;;;;;303.43;28.83;;;;;;;-0.32;100.00;98074.42;3691547;80;43205;-19
2021/01/05 12:29:55;;;;;;;385.53;28.10;;;;;;;-0.30;100.00;98072.16;3689421;80;44049;-18
2021/01/05 12:35:02;;;;;;;218.10;24.77;;;;;;;-0.26;100.00;98071.84;3579063;83;44029;-17
2021/01/05 12:40:11;;;;;;;244.77;25.10;;;;;;;-0.08;100.00;98065.80;3581049;83;44464;-18
2021/01/05 12:45:17;;;;;;;51.70;15.03;;;;;;;-0.12;100.00;98064.78;3691562;80;44018;-18
2021/01/05 12:50:23;;;;;;;39.80;13.77;;;;;;;-0.16;100.00;98060.14;3689125;80;43442;-18
2021/01/05 12:55:28;;;;;;;40.53;14.20;;;;;;;-0.10;100.00;98065.05;3688387;80;44031;-18
2021/01/05 13:00:34;;;;;;;41.50;14.27;;;;;;;-0.17;100.00;98062.42;3638463;81;44106;-18
2021/01/05 13:05:40;;;;;;;39.30;13.53;;;;;;;-0.10;100.00;98062.40;3642126;81;44686;-18
2021/01/05 13:10:45;;;;;;;80.53;17.37;;;;;;;0.03;100.00;98068.20;3641468;81;44680;-18
2021/01/05 13:15:51;;;;;;;58.83;16.07;;;;;;;-0.10;100.00;98068.16;3641761;81;44416;-18
2021/01/05 13:20:57;;;;;;;42.67;14.87;;;;;;;-0.08;100.00;98065.80;3638886;81;44019;-18
2021/01/05 13:26:03;;;;;;;41.13;14.80;;;;;;;-0.10;100.00;98062.40;3639119;81;44350;-18
2021/01/05 13:31:09;;;;;;;43.40;14.13;;;;;;;-0.12;100.00;98055.52;3584813;83;43459;-17
2021/01/05 13:36:23;;;;;;;42.10;14.67;;;;;;;-0.19;100.00;98061.21;3586164;81;44211;-18
2021/01/05 13:41:31;;;;;;;43.57;14.63;;;;;;;-0.10;100.00;98060.21;3640816;81;43721;-18
2021/01/05 13:46:39;;;;;;;43.30;14.70;;;;;;;-0.18;100.00;98066.88;3581678;83;43378;-18
2021/01/05 13:51:45;;;;;;;40.07;14.13;;;;;;;-0.14;100.00;98060.06;3689615;80;43701;-18
2021/01/05 13:56:56;;;;;;;53.60;14.83;;;;;;;-0.14;100.00;98065.36;3641932;81;44487;-19
2021/01/05 14:02:04;;;;;;;35.43;13.70;;;;;;;-0.16;100.00;98065.44;3641135;81;43499;-17
2021/01/05 14:07:12;;;;;;;34.23;12.70;;;;;;;-0.08;100.00;98064.94;3640508;81;43375;-18
2021/01/05 14:12:20;;;;;;;33.87;12.27;;;;;;;-0.14;100.00;98061.39;3639612;81;44003;-18
2021/01/05 14:17:27;;;;;;;36.90;12.73;;;;;;;-0.04;100.00;98065.95;3640828;81;44025;-18
2021/01/05 14:22:33;;;;;;;33.13;12.63;;;;;;;-0.10;100.00;98070.34;3639023;81;43348;-18
2021/01/05 14:27:39;;;;;;;32.43;11.67;;;;;;;-0.10;100.00;98071.67;3639855;81;43710;-18
2021/01/05 14:32:45;;;;;;;28.03;11.37;;;;;;;-0.11;100.00;98062.02;3691827;80;43260;-18
2021/01/05 14:37:52;;;;;;;26.17;11.07;;;;;;;-0.10;100.00;98063.73;3690089;79;43678;-18
2021/01/05 14:42:59;;;;;;;22.33;9.57;;;;;;;-0.04;100.00;98063.78;3691375;80;43432;-18
2021/01/05 14:48:08;;;;;;;24.20;9.83;;;;;;;-0.10;100.00;98062.40;3607050;81;43713;-18
2021/01/05 14:53:14;;;;;;;21.17;8.27;;;;;;;-0.13;100.00;98066.56;3642180;81;44076;-18
2021/01/05 14:58:20;;;;;;;15.87;7.23;;;;;;;-0.15;100.00;98067.14;3643270;81;44069;-18
2021/01/05 15:03:25;;;;;;;20.00;8.27;;;;;;;-0.11;100.00;98071.75;3631702;80;43470;-17
2021/01/05 15:08:32;;;;;;;17.53;7.67;;;;;;;-0.11;100.00;98063.80;3630109;81;44036;-18
2021/01/05 15:13:38;;;;;;;12.83;6.30;;;;;;;-0.10;100.00;98075.64;3644907;80;44048;-17
2021/01/05 15:18:47;;;;;;;13.87;6.60;;;;;;;-0.11;100.00;98066.45;3633983;81;42801;-18
2021/01/05 15:23:54;;;;;;;14.03;6.77;;;;;;;-0.14;100.00;98066.69;3706503;80;43374;-18
2021/01/05 15:29:02;;;;;;;24.83;8.60;;;;;;;-0.09;100.00;98066.75;3703828;80;43489;-18
2021/01/05 15:34:09;;;;;;;14.67;6.07;;;;;;;-0.13;100.00;98073.19;3641724;81;43705;-18
2021/01/05 15:39:20;;;;;;;13.07;6.43;;;;;;;-0.17;100.00;98075.20;3643890;81;44040;-18
2021/01/05 15:44:31;;;;;;;15.03;6.57;;;;;;;-0.19;100.00;98078.42;3645194;81;43360;-18
2021/01/05 15:49:38;;;;;;;14.13;6.63;;;;;;;-0.18;100.00;98072.17;3637057;80;44236;-18
2021/01/05 15:54:44;;;;;;;10.93;5.70;;;;;;;-0.21;100.00;98082.13;3634429;81;43726;-18
2021/01/05 15:59:51;;;;;;;10.93;4.83;;;;;;;-0.15;100.00;98069.79;3633587;81;44002;-18
2021/01/05 16:04:57;;;;;;;7.30;4.47;;;;;;;-0.16;100.00;98066.31;3610289;81;43752;-18
2021/01/05 16:10:04;;;;;;;8.13;3.97;;;;;;;-0.15;100.00;98068.47;3634533;80;43726;-18
2021/01/05 16:15:13;;;;;;;8.50;4.63;;;;;;;-0.19;100.00;98059.05;3598186;82;43693;-18
2021/01/05 16:20:22;;;;;;;8.50;4.33;;;;;;;-0.18;100.00;98066.88;3595557;82;43661;-18
2021/01/05 16:25:28;;;;;;;8.27;4.53;;;;;;;-0.13;100.00;98067.06;3634675;81;43406;-18
2021/01/05 16:30:37;;;;;;;12.23;5.37;;;;;;;-0.17;100.00;98075.66;3634483;80;43954;-18
2021/01/05 16:35:42;;;;;;;9.47;5.60;;;;;;;-0.11;100.00;98071.30;3634334;81;44683;-19
2021/01/05 16:40:49;;;;;;;14.37;6.80;;;;;;;-0.07;100.00;98074.13;3631278;81;44086;-18
2021/01/05 16:45:56;;;;;;;12.57;5.83;;;;;;;-0.13;100.00;98070.54;3631117;82;44028;-18
2021/01/05 16:51:03;;;;;;;9.13;5.10;;;;;;;-0.16;100.00;98090.59;3633881;80;43722;-19
2021/01/05 16:56:09;;;;;;;10.00;4.70;;;;;;;-0.16;100.00;98085.30;3596782;82;44015;-19
2021/01/05 17:01:16;;;;;;;8.63;4.80;;;;;;;-0.21;100.00;98087.42;3628151;81;44131;-19
2021/01/05 17:06:22;;;;;;;12.17;5.40;;;;;;;-0.19;100.00;98083.72;3633038;81;43706;-19
2021/01/05 17:11:27;;;;;;;13.87;7.70;;;;;;;-0.15;100.00;98081.70;3631143;80;44069;-19
2021/01/05 17:16:33;;;;;;;14.97;7.60;;;;;;;-0.16;100.00;98078.68;3625723;81;44046;-19
2021/01/05 17:21:39;;;;;;;15.23;6.70;;;;;;;-0.13;100.00;98067.89;3631116;82;44071;-19
2021/01/05 17:26:45;;;;;;;20.30;11.13;;;;;;;-0.19;100.00;98066.50;3596022;82;44081;-19
2021/01/05 17:31:51;;;;;;;15.93;7.20;;;;;;;-0.18;100.00;98070.02;3594346;82;43483;-19
2021/01/05 17:36:56;;;;;;;19.80;9.97;;;;;;;-0.15;100.00;98073.77;3707406;79;44049;-19
2021/01/05 17:42:03;;;;;;;15.57;6.83;;;;;;;-0.15;100.00;98065.81;3660617;80;43696;-19
2021/01/05 17:47:13;;;;;;;25.30;12.10;;;;;;;-0.16;100.00;98075.58;3703448;79;43730;-19
2021/01/05 17:52:19;;;;;;;18.77;7.50;;;;;;;-0.13;100.00;98065.25;3683411;79;43377;-19
2021/01/05 17:57:25;;;;;;;26.10;12.73;;;;;;;-0.10;100.00;98071.67;3685170;79;43431;-19
2021/01/05 18:02:30;;;;;;;31.43;13.50;;;;;;;-0.12;100.00;98077.54;3689608;80;44619;-19
2021/01/05 18:07:38;;;;;;;29.93;13.63;;;;;;;-0.11;100.00;98072.62;3707149;79;44041;-19
2021/01/05 18:12:48;;;;;;;36.53;16.33;;;;;;;-0.07;100.00;98067.50;3752460;79;44049;-19
2021/01/05 18:17:55;;;;;;;34.17;12.53;;;;;;;-0.07;100.00;98072.80;3732472;79;43491;-19
2021/01/05 18:23:00;;;;;;;33.93;12.20;;;;;;;-0.12;100.00;98070.92;3691360;80;44599;-19
2021/01/05 18:28:07;;;;;;;25.00;10.87;;;;;;;-0.07;100.00;98078.55;3699658;79;43325;-19
2021/01/05 18:33:13;;;;;;;35.63;14.97;;;;;;;-0.07;100.00;98083.39;3662044;80;44061;-19
2021/01/05 18:38:19;;;;;;;24.03;10.97;;;;;;;-0.10;100.00;98086.23;3681829;80;43337;-19
2021/01/05 18:43:25;;;;;;;27.90;10.60;;;;;;;-0.06;100.00;98087.70;3666735;79;44100;-19
2021/01/05 18:48:50;;;;;;;26.07;12.73;;;;;;;-0.11;100.00;98089.83;3632003;80;44071;-19
2021/01/05 18:54:03;;;;;;;24.10;12.20;;;;;;;-0.03;100.00;98078.23;3694525;79;43693;-19
2021/01/05 18:59:11;;;;;;;25.97;14.03;;;;;;;-0.01;100.00;98076.34;3626342;80;44026;-19
2021/01/05 19:04:19;;;;;;;27.23;13.20;;;;;;;-0.02;100.00;98077.29;3636133;80;43716;-19
2021/01/05 19:09:25;;;;;;;21.47;10.20;;;;;;;-0.02;100.00;98077.78;3648440;80;43979;-19
2021/01/05 19:14:32;;;;;;;20.27;9.57;;;;;;;0.03;100.00;98076.98;3676435;79;44016;-19
2021/01/05 19:19:38;;;;;;;16.70;8.00;;;;;;;0.07;100.00;98077.16;3618451;82;44646;-19
2021/01/05 19:24:44;;;;;;;15.97;7.50;;;;;;;0.05;100.00;98072.92;3690210;80;43028;-19
2021/01/05 19:29:50;;;;;;;18.97;9.73;;;;;;;0.05;100.00;98068.95;3690093;80;43384;-19
2021/01/05 19:34:58;;;;;;;16.27;8.20;;;;;;;0.07;100.00;98067.88;3607763;80;44240;-19
2021/01/05 19:40:08;;;;;;;15.13;6.93;;;;;;;0.08;100.00;98068.72;3622828;81;43997;-19
2021/01/05 19:45:18;;;;;;;13.83;6.63;;;;;;;0.07;100.00;98061.72;3585184;82;43393;-19
2021/01/05 19:50:25;;;;;;;17.53;8.83;;;;;;;0.12;100.00;98071.05;3645447;80;44084;-19
2021/01/05 19:55:33;;;;;;;19.33;8.90;;;;;;;0.09;100.00;98064.66;3765115;79;43678;-19
2021/01/05 20:00:39;;;;;;;23.27;11.17;;;;;;;0.10;100.00;98070.33;3719892;79;43405;-19
2021/01/05 20:05:45;;;;;;;15.17;7.73;;;;;;;0.16;100.00;98066.42;3707923;79;43720;-19
2021/01/05 20:10:54;;;;;;;17.10;8.50;;;;;;;0.15;100.00;98067.37;3675633;80;43677;-19
2021/01/05 20:16:01;;;;;;;16.90;7.77;;;;;;;0.16;100.00;98066.42;3706784;79;44148;-21
2021/01/05 20:21:07;;;;;;;18.10;7.93;;;;;;;0.13;100.00;98069.27;3718254;78;44067;-20
2021/01/05 20:26:15;;;;;;;28.77;14.23;;;;;;;0.24;100.00;98068.52;3707775;80;44073;-20
2021/01/05 20:31:22;;;;;;;22.60;9.30;;;;;;;0.29;100.00;98073.04;3743896;79;43692;-21
2021/01/05 20:36:29;;;;;;;26.83;9.93;;;;;;;0.26;100.00;98068.80;3707620;79;44522;-20
2021/01/05 20:41:39;;;;;;;39.23;9.63;;;;;;;0.30;100.00;98064.97;3707647;79;44046;-20
2021/01/05 20:46:45;;;;;;;30.20;10.13;;;;;;;0.29;100.00;98060.62;3712166;79;44074;-20
2021/01/05 20:51:51;;;;;;;39.00;10.90;;;;;;;0.36;100.00;98068.17;3736054;79;44118;-20
2021/01/05 20:56:57;;;;;;;38.23;11.27;;;;;;;0.28;100.00;98064.25;3715173;79;43693;-20
2021/01/05 21:02:04;;;;;;;29.50;10.23;;;;;;;0.27;100.00;98057.26;3739809;79;43377;-20
2021/01/05 21:07:10;;;;;;;37.57;15.00;;;;;;;0.33;100.00;98064.39;3698986;80;43329;-20
2021/01/05 21:12:15;;;;;;;20.73;8.33;;;;;;;0.34;100.00;98062.98;3707862;79;43482;-20
2021/01/05 21:17:23;;;;;;;20.67;7.47;;;;;;;0.34;100.00;98062.98;3719739;79;43388;-20
2021/01/05 21:22:29;;;;;;;21.93;8.07;;;;;;;0.29;100.00;98060.62;3728073;79;44010;-20
2021/01/05 21:27:36;;;;;;;17.50;6.70;;;;;;;0.34;100.00;98062.98;3722665;79;44489;-20
2021/01/05 21:32:43;;;;;;;13.30;6.57;;;;;;;0.36;100.00;98062.87;3769787;79;43314;-20
2021/01/05 21:37:49;;;;;;;14.57;6.53;;;;;;;0.35;100.00;98052.77;3711024;79;43717;-20
2021/01/05 21:42:55;;;;;;;15.10;6.87;;;;;;;0.31;100.00;98059.22;3668112;79;43714;-20
2021/01/05 21:48:02;;;;;;;16.00;6.63;;;;;;;0.37;100.00;98055.30;3727888;79;43998;-20
2021/01/05 21:53:11;;;;;;;14.90;6.77;;;;;;;0.37;100.00;98057.94;3640510;80;44058;-20
2021/01/05 21:58:20;;;;;;;11.93;5.73;;;;;;;0.36;100.00;98059.73;3676542;79;44154;-20
2021/01/05 22:03:29;;;;;;;13.20;6.27;;;;;;;0.41;100.00;98053.65;3696958;79;44012;-20
2021/01/05 22:08:33;;;;;;;11.63;5.17;;;;;;;0.46;100.00;98046.70;3701727;79;43471;-20
2021/01/05 22:13:39;;;;;;;9.37;4.83;;;;;;;0.45;100.00;98037.05;3740628;79;43442;-21
2021/01/05 22:18:46;;;;;;;6.57;3.73;;;;;;;0.45;100.00;98033.94;3696588;79;43400;-21
2021/01/05 22:23:52;;;;;;;5.97;3.73;;;;;;;0.48;100.00;98023.59;3657590;80;43061;-21
2021/01/05 22:28:58;;;;;;;7.80;3.80;;;;;;;0.48;100.00;98010.34;3704387;79;44032;-20
2021/01/05 22:34:04;;;;;;;7.43;3.57;;;;;;;0.54;100.00;98011.70;3751920;79;44457;-20
2021/01/05 22:39:09;;;;;;;7.13;3.67;;;;;;;0.49;100.00;98016.02;3728904;79;44058;-20
2021/01/05 22:44:16;;;;;;;7.03;3.40;;;;;;;0.51;100.00;98014.11;3751961;79;43357;-20
2021/01/05 22:49:21;;;;;;;5.90;3.10;;;;;;;0.50;100.00;98020.82;3704335;79;43412;-20
2021/01/05 22:54:28;;;;;;;7.03;3.50;;;;;;;0.48;100.00;98022.27;3692820;79;43620;-20
2021/01/05 22:59:35;;;;;;;6.33;2.93;;;;;;;0.48;100.00;98014.77;3703148;80;44096;-21
2021/01/05 23:04:41;;;;;;;4.73;2.70;;;;;;;0.48;100.00;98009.47;3705358;79;44027;-20
2021/01/05 23:09:48;;;;;;;3.43;2.47;;;;;;;0.47;100.00;98007.31;3703995;80;44472;-20
2021/01/05 23:14:54;;;;;;;5.63;3.50;;;;;;;0.47;100.00;98004.66;3708180;80;43713;-20
2021/01/05 23:20:00;;;;;;;10.33;4.47;;;;;;;0.55;100.00;97996.17;3714518;79;43396;-20
2021/01/05 23:25:10;;;;;;;8.70;5.07;;;;;;;0.49;100.00;97985.53;3696162;79;43626;-20
2021/01/05 23:30:20;;;;;;;6.67;3.80;;;;;;;0.51;100.00;97983.63;3809183;77;44502;-20
2021/01/05 23:35:29;;;;;;;7.57;4.23;;;;;;;0.55;100.00;97978.45;3654247;80;43494;-21